sensor_id;sensor_type;location;lat;lon;timestamp;temperature;humidity
24326;DHT22;12448;45.532;5.290;2023-02-19T00:01:07;10.50;90.70
24326;DHT22;12448;45.532;5.290;2023-02-19T00:03:33;10.50;90.90
24326;DHT22;12448;45.532;5.290;2023-02-19T00:06:03;10.40;91.20
24326;DHT22;12448;45.532;5.290;2023-02-19T00:08:30;10.40;91.30
24326;DHT22;12448;45.532;5.290;2023-02-19T00:11:17;10.40;91.40
24326;DHT22;12448;45.532;5.290;2023-02-19T00:13:45;10.40;91.50
24326;DHT22;12448;45.532;5.290;2023-02-19T00:16:14;10.40;91.50
24326;DHT22;12448;45.532;5.290;2023-02-19T00:18:40;10.50;91.70
24326;DHT22;12448;45.532;5.290;2023-02-19T00:21:06;10.60;91.80
24326;DHT22;12448;45.532;5.290;2023-02-19T00:23:32;10.60;92.00
24326;DHT22;12448;45.532;5.290;2023-02-19T00:26:02;10.70;92.10
24326;DHT22;12448;45.532;5.290;2023-02-19T00:28:28;10.60;92.20
24326;DHT22;12448;45.532;5.290;2023-02-19T00:30:53;10.70;92.10
24326;DHT22;12448;45.532;5.290;2023-02-19T00:33:19;10.70;92.20
24326;DHT22;12448;45.532;5.290;2023-02-19T00:35:44;11.10;92.40
24326;DHT22;12448;45.532;5.290;2023-02-19T00:38:10;10.70;92.40
24326;DHT22;12448;45.532;5.290;2023-02-19T00:40:37;10.70;92.70
24326;DHT22;12448;45.532;5.290;2023-02-19T00:43:03;11.00;92.50
24326;DHT22;12448;45.532;5.290;2023-02-19T00:45:28;10.80;92.40
24326;DHT22;12448;45.532;5.290;2023-02-19T00:47:54;10.90;92.50
24326;DHT22;12448;45.532;5.290;2023-02-19T00:50:20;10.90;92.40
24326;DHT22;12448;45.532;5.290;2023-02-19T00:52:45;10.90;92.40
24326;DHT22;12448;45.532;5.290;2023-02-19T00:55:11;10.90;92.50
24326;DHT22;12448;45.532;5.290;2023-02-19T00:57:37;11.40;92.70
24326;DHT22;12448;45.532;5.290;2023-02-19T01:00:03;10.90;92.50
24326;DHT22;12448;45.532;5.290;2023-02-19T01:02:31;10.80;92.60
24326;DHT22;12448;45.532;5.290;2023-02-19T01:04:56;10.80;92.60
24326;DHT22;12448;45.532;5.290;2023-02-19T01:07:22;10.70;92.70
24326;DHT22;12448;45.532;5.290;2023-02-19T01:09:48;11.30;93.00
24326;DHT22;12448;45.532;5.290;2023-02-19T01:12:14;10.60;93.20
24326;DHT22;12448;45.532;5.290;2023-02-19T01:14:39;10.60;93.00
24326;DHT22;12448;45.532;5.290;2023-02-19T01:17:05;10.50;93.10
24326;DHT22;12448;45.532;5.290;2023-02-19T01:19:31;10.50;93.10
24326;DHT22;12448;45.532;5.290;2023-02-19T01:21:56;10.40;93.20
24326;DHT22;12448;45.532;5.290;2023-02-19T01:24:22;10.40;93.20
24326;DHT22;12448;45.532;5.290;2023-02-19T01:26:47;10.50;93.40
24326;DHT22;12448;45.532;5.290;2023-02-19T01:29:13;10.50;93.40
24326;DHT22;12448;45.532;5.290;2023-02-19T01:31:39;10.50;93.40
24326;DHT22;12448;45.532;5.290;2023-02-19T01:34:08;10.60;93.30
24326;DHT22;12448;45.532;5.290;2023-02-19T01:36:34;10.70;93.30
24326;DHT22;12448;45.532;5.290;2023-02-19T01:39:02;10.80;93.30
24326;DHT22;12448;45.532;5.290;2023-02-19T01:41:30;10.80;93.10
24326;DHT22;12448;45.532;5.290;2023-02-19T01:44:05;10.80;93.10
24326;DHT22;12448;45.532;5.290;2023-02-19T01:46:43;10.80;93.00
24326;DHT22;12448;45.532;5.290;2023-02-19T01:49:20;10.90;93.00
24326;DHT22;12448;45.532;5.290;2023-02-19T01:51:56;10.90;92.90
24326;DHT22;12448;45.532;5.290;2023-02-19T01:54:26;10.90;92.90
24326;DHT22;12448;45.532;5.290;2023-02-19T01:56:53;11.00;92.90
24326;DHT22;12448;45.532;5.290;2023-02-19T01:59:20;11.00;92.90
24326;DHT22;12448;45.532;5.290;2023-02-19T02:01:46;11.10;92.90
24326;DHT22;12448;45.532;5.290;2023-02-19T02:04:13;11.10;93.10
24326;DHT22;12448;45.532;5.290;2023-02-19T02:06:52;11.20;92.80
24326;DHT22;12448;45.532;5.290;2023-02-19T02:09:20;11.20;92.70
24326;DHT22;12448;45.532;5.290;2023-02-19T02:12:05;11.20;92.60
24326;DHT22;12448;45.532;5.290;2023-02-19T02:14:34;11.30;92.60
24326;DHT22;12448;45.532;5.290;2023-02-19T02:17:24;11.30;92.50
24326;DHT22;12448;45.532;5.290;2023-02-19T02:22:33;11.30;92.40
24326;DHT22;12448;45.532;5.290;2023-02-19T02:33:16;11.30;92.40
24326;DHT22;12448;45.532;5.290;2023-02-19T02:35:48;11.30;92.40
24326;DHT22;12448;45.532;5.290;2023-02-19T02:38:17;11.30;92.40
24326;DHT22;12448;45.532;5.290;2023-02-19T02:40:45;11.30;92.40
24326;DHT22;12448;45.532;5.290;2023-02-19T02:43:11;11.50;92.50
24326;DHT22;12448;45.532;5.290;2023-02-19T02:45:37;11.30;92.40
24326;DHT22;12448;45.532;5.290;2023-02-19T02:48:18;11.40;92.40
24326;DHT22;12448;45.532;5.290;2023-02-19T02:51:03;11.30;92.40
24326;DHT22;12448;45.532;5.290;2023-02-19T02:53:43;11.30;92.40
24326;DHT22;12448;45.532;5.290;2023-02-19T02:56:28;11.40;92.40
24326;DHT22;12448;45.532;5.290;2023-02-19T02:58:55;11.30;92.40
24326;DHT22;12448;45.532;5.290;2023-02-19T03:01:27;11.30;92.40
24326;DHT22;12448;45.532;5.290;2023-02-19T03:04:27;11.40;92.40
24326;DHT22;12448;45.532;5.290;2023-02-19T03:06:55;11.30;92.30
24326;DHT22;12448;45.532;5.290;2023-02-19T03:09:31;11.30;92.40
24326;DHT22;12448;45.532;5.290;2023-02-19T03:12:01;11.30;92.40
24326;DHT22;12448;45.532;5.290;2023-02-19T03:14:49;11.30;92.30
24326;DHT22;12448;45.532;5.290;2023-02-19T03:17:46;11.30;92.30
24326;DHT22;12448;45.532;5.290;2023-02-19T03:20:33;11.30;92.30
24326;DHT22;12448;45.532;5.290;2023-02-19T03:23:01;11.30;92.30
24326;DHT22;12448;45.532;5.290;2023-02-19T03:25:30;11.20;92.30
24326;DHT22;12448;45.532;5.290;2023-02-19T03:28:17;11.20;92.20
24326;DHT22;12448;45.532;5.290;2023-02-19T03:30:48;11.20;92.20
24326;DHT22;12448;45.532;5.290;2023-02-19T03:33:18;11.20;92.20
24326;DHT22;12448;45.532;5.290;2023-02-19T03:35:49;11.10;92.20
24326;DHT22;12448;45.532;5.290;2023-02-19T03:41:06;11.10;92.20
24326;DHT22;12448;45.532;5.290;2023-02-19T03:43:41;11.10;92.20
24326;DHT22;12448;45.532;5.290;2023-02-19T03:46:20;11.00;92.30
24326;DHT22;12448;45.532;5.290;2023-02-19T03:48:52;11.00;92.30
24326;DHT22;12448;45.532;5.290;2023-02-19T03:51:39;11.00;92.30
24326;DHT22;12448;45.532;5.290;2023-02-19T03:54:19;11.00;92.30
24326;DHT22;12448;45.532;5.290;2023-02-19T04:02:24;11.00;92.40
24326;DHT22;12448;45.532;5.290;2023-02-19T04:04:57;11.00;92.40
24326;DHT22;12448;45.532;5.290;2023-02-19T04:07:24;11.00;92.40
24326;DHT22;12448;45.532;5.290;2023-02-19T04:09:52;11.00;92.40
24326;DHT22;12448;45.532;5.290;2023-02-19T04:12:20;11.00;92.40
24326;DHT22;12448;45.532;5.290;2023-02-19T04:14:58;11.10;92.50
24326;DHT22;12448;45.532;5.290;2023-02-19T04:17:30;11.00;92.50
24326;DHT22;12448;45.532;5.290;2023-02-19T04:19:59;11.00;92.50
24326;DHT22;12448;45.532;5.290;2023-02-19T04:22:26;11.00;92.50
24326;DHT22;12448;45.532;5.290;2023-02-19T04:24:53;10.90;92.50
24326;DHT22;12448;45.532;5.290;2023-02-19T04:27:20;11.00;92.50
24326;DHT22;12448;45.532;5.290;2023-02-19T04:29:45;11.00;92.50
24326;DHT22;12448;45.532;5.290;2023-02-19T04:32:12;11.00;92.50
24326;DHT22;12448;45.532;5.290;2023-02-19T04:34:37;10.90;92.40
24326;DHT22;12448;45.532;5.290;2023-02-19T04:37:03;10.90;92.80
24326;DHT22;12448;45.532;5.290;2023-02-19T04:39:29;10.90;92.50
24326;DHT22;12448;45.532;5.290;2023-02-19T04:41:54;10.90;92.60
24326;DHT22;12448;45.532;5.290;2023-02-19T04:44:20;10.90;92.70
24326;DHT22;12448;45.532;5.290;2023-02-19T04:46:46;11.40;92.90
24326;DHT22;12448;45.532;5.290;2023-02-19T04:49:11;10.90;92.90
24326;DHT22;12448;45.532;5.290;2023-02-19T04:51:38;10.80;92.90
24326;DHT22;12448;45.532;5.290;2023-02-19T04:54:03;10.80;93.00
24326;DHT22;12448;45.532;5.290;2023-02-19T04:56:29;10.80;93.00
24326;DHT22;12448;45.532;5.290;2023-02-19T04:58:55;10.80;93.20
24326;DHT22;12448;45.532;5.290;2023-02-19T05:01:20;10.80;93.00
24326;DHT22;12448;45.532;5.290;2023-02-19T05:03:46;10.80;93.00
24326;DHT22;12448;45.532;5.290;2023-02-19T05:06:13;10.80;93.00
24326;DHT22;12448;45.532;5.290;2023-02-19T05:08:39;10.80;93.40
24326;DHT22;12448;45.532;5.290;2023-02-19T05:11:06;10.80;93.10
24326;DHT22;12448;45.532;5.290;2023-02-19T05:13:32;10.80;93.20
24326;DHT22;12448;45.532;5.290;2023-02-19T05:16:01;10.70;93.20
24326;DHT22;12448;45.532;5.290;2023-02-19T05:18:27;10.70;93.30
24326;DHT22;12448;45.532;5.290;2023-02-19T05:20:53;10.70;93.40
24326;DHT22;12448;45.532;5.290;2023-02-19T05:23:19;10.70;93.40
24326;DHT22;12448;45.532;5.290;2023-02-19T05:25:45;10.70;93.40
24326;DHT22;12448;45.532;5.290;2023-02-19T05:28:11;10.70;93.40
24326;DHT22;12448;45.532;5.290;2023-02-19T05:30:48;10.70;93.50
24326;DHT22;12448;45.532;5.290;2023-02-19T05:33:15;10.60;93.50
24326;DHT22;12448;45.532;5.290;2023-02-19T05:35:50;10.60;93.60
24326;DHT22;12448;45.532;5.290;2023-02-19T05:38:17;10.60;93.50
24326;DHT22;12448;45.532;5.290;2023-02-19T05:40:43;10.60;93.60
24326;DHT22;12448;45.532;5.290;2023-02-19T05:43:10;10.60;93.80
24326;DHT22;12448;45.532;5.290;2023-02-19T05:45:36;10.50;93.60
24326;DHT22;12448;45.532;5.290;2023-02-19T05:48:03;10.50;93.70
24326;DHT22;12448;45.532;5.290;2023-02-19T05:50:30;10.50;93.80
24326;DHT22;12448;45.532;5.290;2023-02-19T05:53:02;10.50;93.80
24326;DHT22;12448;45.532;5.290;2023-02-19T05:55:29;10.60;93.80
24326;DHT22;12448;45.532;5.290;2023-02-19T05:57:58;10.60;93.90
24326;DHT22;12448;45.532;5.290;2023-02-19T06:00:23;10.60;93.80
24326;DHT22;12448;45.532;5.290;2023-02-19T06:02:52;10.70;93.80
24326;DHT22;12448;45.532;5.290;2023-02-19T06:05:17;10.70;93.80
24326;DHT22;12448;45.532;5.290;2023-02-19T06:07:43;10.70;93.70
24326;DHT22;12448;45.532;5.290;2023-02-19T06:10:10;11.30;93.90
24326;DHT22;12448;45.532;5.290;2023-02-19T06:12:37;10.80;93.70
24326;DHT22;12448;45.532;5.290;2023-02-19T06:15:06;10.80;93.60
24326;DHT22;12448;45.532;5.290;2023-02-19T06:17:32;10.80;93.60
24326;DHT22;12448;45.532;5.290;2023-02-19T06:19:58;10.80;93.60
24326;DHT22;12448;45.532;5.290;2023-02-19T06:22:24;10.80;93.50
24326;DHT22;12448;45.532;5.290;2023-02-19T06:24:50;10.80;93.50
24326;DHT22;12448;45.532;5.290;2023-02-19T06:27:15;10.70;93.50
24326;DHT22;12448;45.532;5.290;2023-02-19T06:29:41;10.60;93.60
24326;DHT22;12448;45.532;5.290;2023-02-19T06:32:06;10.60;93.70
24326;DHT22;12448;45.532;5.290;2023-02-19T06:34:33;10.70;93.80
24326;DHT22;12448;45.532;5.290;2023-02-19T06:36:58;10.70;93.70
24326;DHT22;12448;45.532;5.290;2023-02-19T06:39:25;10.70;93.70
24326;DHT22;12448;45.532;5.290;2023-02-19T06:41:51;10.80;93.70
24326;DHT22;12448;45.532;5.290;2023-02-19T06:44:19;10.70;93.50
24326;DHT22;12448;45.532;5.290;2023-02-19T06:46:45;10.70;93.40
24326;DHT22;12448;45.532;5.290;2023-02-19T06:49:10;10.70;93.30
24326;DHT22;12448;45.532;5.290;2023-02-19T06:51:36;11.10;93.40
24326;DHT22;12448;45.532;5.290;2023-02-19T06:54:02;10.60;93.20
24326;DHT22;12448;45.532;5.290;2023-02-19T06:56:32;10.50;93.30
24326;DHT22;12448;45.532;5.290;2023-02-19T06:59:01;10.50;93.40
24326;DHT22;12448;45.532;5.290;2023-02-19T07:01:28;10.50;93.40
24326;DHT22;12448;45.532;5.290;2023-02-19T07:03:54;10.30;93.50
24326;DHT22;12448;45.532;5.290;2023-02-19T07:06:24;10.30;93.70
24326;DHT22;12448;45.532;5.290;2023-02-19T07:08:51;10.20;93.90
24326;DHT22;12448;45.532;5.290;2023-02-19T07:11:17;10.10;94.00
24326;DHT22;12448;45.532;5.290;2023-02-19T07:13:44;10.10;94.30
24326;DHT22;12448;45.532;5.290;2023-02-19T07:16:10;10.00;94.50
24326;DHT22;12448;45.532;5.290;2023-02-19T07:18:37;10.10;94.60
24326;DHT22;12448;45.532;5.290;2023-02-19T07:21:11;10.20;94.60
24326;DHT22;12448;45.532;5.290;2023-02-19T07:23:37;10.30;94.60
24326;DHT22;12448;45.532;5.290;2023-02-19T07:26:03;10.40;94.60
24326;DHT22;12448;45.532;5.290;2023-02-19T07:28:29;10.50;94.50
24326;DHT22;12448;45.532;5.290;2023-02-19T07:30:59;10.50;94.40
24326;DHT22;12448;45.532;5.290;2023-02-19T07:33:25;10.60;94.30
24326;DHT22;12448;45.532;5.290;2023-02-19T07:35:51;10.60;94.30
24326;DHT22;12448;45.532;5.290;2023-02-19T07:38:22;10.70;94.30
24326;DHT22;12448;45.532;5.290;2023-02-19T07:40:51;10.70;94.20
24326;DHT22;12448;45.532;5.290;2023-02-19T07:43:17;10.80;94.20
24326;DHT22;12448;45.532;5.290;2023-02-19T07:45:43;10.80;94.20
24326;DHT22;12448;45.532;5.290;2023-02-19T07:48:09;10.80;94.10
24326;DHT22;12448;45.532;5.290;2023-02-19T07:50:34;10.90;94.10
24326;DHT22;12448;45.532;5.290;2023-02-19T07:53:00;10.80;94.10
24326;DHT22;12448;45.532;5.290;2023-02-19T07:55:26;10.80;94.40
24326;DHT22;12448;45.532;5.290;2023-02-19T07:57:51;10.80;94.00
24326;DHT22;12448;45.532;5.290;2023-02-19T08:00:17;10.80;94.10
24326;DHT22;12448;45.532;5.290;2023-02-19T08:02:44;10.80;94.10
24326;DHT22;12448;45.532;5.290;2023-02-19T08:05:30;11.00;94.20
24326;DHT22;12448;45.532;5.290;2023-02-19T08:07:57;10.70;94.20
24326;DHT22;12448;45.532;5.290;2023-02-19T08:10:24;11.10;94.40
24326;DHT22;12448;45.532;5.290;2023-02-19T08:13:14;10.70;94.30
24326;DHT22;12448;45.532;5.290;2023-02-19T08:15:53;10.70;94.40
24326;DHT22;12448;45.532;5.290;2023-02-19T08:18:22;10.80;94.30
24326;DHT22;12448;45.532;5.290;2023-02-19T08:20:48;10.60;94.30
24326;DHT22;12448;45.532;5.290;2023-02-19T08:23:14;10.60;94.30
24326;DHT22;12448;45.532;5.290;2023-02-19T08:25:40;10.60;94.50
24326;DHT22;12448;45.532;5.290;2023-02-19T08:28:08;10.60;94.50
24326;DHT22;12448;45.532;5.290;2023-02-19T08:30:34;10.90;94.60
24326;DHT22;12448;45.532;5.290;2023-02-19T08:33:01;10.60;94.60
24326;DHT22;12448;45.532;5.290;2023-02-19T08:35:27;10.70;94.60
24326;DHT22;12448;45.532;5.290;2023-02-19T08:37:57;10.80;94.60
24326;DHT22;12448;45.532;5.290;2023-02-19T08:40:24;10.70;94.50
24326;DHT22;12448;45.532;5.290;2023-02-19T08:42:49;10.70;94.50
24326;DHT22;12448;45.532;5.290;2023-02-19T08:45:15;10.70;94.50
24326;DHT22;12448;45.532;5.290;2023-02-19T08:47:41;10.70;94.50
24326;DHT22;12448;45.532;5.290;2023-02-19T08:50:07;10.70;94.50
24326;DHT22;12448;45.532;5.290;2023-02-19T08:52:33;10.70;94.50
24326;DHT22;12448;45.532;5.290;2023-02-19T08:55:00;11.00;94.60
24326;DHT22;12448;45.532;5.290;2023-02-19T08:57:26;10.70;94.50
24326;DHT22;12448;45.532;5.290;2023-02-19T08:59:54;10.70;94.80
24326;DHT22;12448;45.532;5.290;2023-02-19T09:02:20;10.70;94.50
24326;DHT22;12448;45.532;5.290;2023-02-19T09:04:45;10.70;94.50
24326;DHT22;12448;45.532;5.290;2023-02-19T09:07:11;10.70;94.50
24326;DHT22;12448;45.532;5.290;2023-02-19T09:09:37;10.70;94.50
24326;DHT22;12448;45.532;5.290;2023-02-19T09:12:08;10.80;94.50
24326;DHT22;12448;45.532;5.290;2023-02-19T09:14:34;10.80;94.40
24326;DHT22;12448;45.532;5.290;2023-02-19T09:17:01;10.80;94.30
24326;DHT22;12448;45.532;5.290;2023-02-19T09:19:27;10.80;94.30
24326;DHT22;12448;45.532;5.290;2023-02-19T09:21:54;10.80;94.30
24326;DHT22;12448;45.532;5.290;2023-02-19T09:24:20;10.80;94.30
24326;DHT22;12448;45.532;5.290;2023-02-19T09:26:52;10.90;94.30
24326;DHT22;12448;45.532;5.290;2023-02-19T09:29:19;10.90;94.30
24326;DHT22;12448;45.532;5.290;2023-02-19T09:31:45;10.90;94.30
24326;DHT22;12448;45.532;5.290;2023-02-19T09:34:10;10.90;94.20
24326;DHT22;12448;45.532;5.290;2023-02-19T09:36:37;11.00;94.10
24326;DHT22;12448;45.532;5.290;2023-02-19T09:39:04;11.00;93.80
24326;DHT22;12448;45.532;5.290;2023-02-19T09:41:43;11.00;93.60
24326;DHT22;12448;45.532;5.290;2023-02-19T09:44:14;11.00;93.50
24326;DHT22;12448;45.532;5.290;2023-02-19T09:46:48;11.30;93.50
24326;DHT22;12448;45.532;5.290;2023-02-19T09:49:18;11.00;93.20
24326;DHT22;12448;45.532;5.290;2023-02-19T09:51:53;11.00;93.30
24326;DHT22;12448;45.532;5.290;2023-02-19T09:54:26;11.10;93.20
24326;DHT22;12448;45.532;5.290;2023-02-19T09:56:57;11.10;93.10
24326;DHT22;12448;45.532;5.290;2023-02-19T09:59:28;11.20;93.00
24326;DHT22;12448;45.532;5.290;2023-02-19T10:02:14;11.20;93.00
24326;DHT22;12448;45.532;5.290;2023-02-19T10:04:43;11.20;92.90
24326;DHT22;12448;45.532;5.290;2023-02-19T10:07:26;11.30;92.80
24326;DHT22;12448;45.532;5.290;2023-02-19T10:12:40;11.30;92.30
24326;DHT22;12448;45.532;5.290;2023-02-19T10:17:49;11.40;92.30
24326;DHT22;12448;45.532;5.290;2023-02-19T10:20:18;11.50;92.10
24326;DHT22;12448;45.532;5.290;2023-02-19T10:22:44;11.50;91.80
24326;DHT22;12448;45.532;5.290;2023-02-19T10:25:16;11.40;91.40
24326;DHT22;12448;45.532;5.290;2023-02-19T10:27:42;11.40;91.60
24326;DHT22;12448;45.532;5.290;2023-02-19T10:30:19;11.50;91.60
24326;DHT22;12448;45.532;5.290;2023-02-19T10:33:02;11.60;91.50
24326;DHT22;12448;45.532;5.290;2023-02-19T10:35:29;11.60;91.10
24326;DHT22;12448;45.532;5.290;2023-02-19T10:38:00;11.60;91.20
24326;DHT22;12448;45.532;5.290;2023-02-19T10:40:27;11.60;91.30
24326;DHT22;12448;45.532;5.290;2023-02-19T10:42:58;11.60;91.10
24326;DHT22;12448;45.532;5.290;2023-02-19T10:45:45;11.70;91.20
24326;DHT22;12448;45.532;5.290;2023-02-19T10:48:23;11.70;91.20
24326;DHT22;12448;45.532;5.290;2023-02-19T10:50:54;11.70;91.00
24326;DHT22;12448;45.532;5.290;2023-02-19T10:53:34;11.80;91.10
24326;DHT22;12448;45.532;5.290;2023-02-19T10:56:26;11.70;90.60
24326;DHT22;12448;45.532;5.290;2023-02-19T10:58:54;11.70;91.10
24326;DHT22;12448;45.532;5.290;2023-02-19T11:01:22;11.70;90.90
24326;DHT22;12448;45.532;5.290;2023-02-19T11:03:52;11.70;90.70
24326;DHT22;12448;45.532;5.290;2023-02-19T11:06:37;11.60;90.70
24326;DHT22;12448;45.532;5.290;2023-02-19T11:09:03;11.60;90.80
24326;DHT22;12448;45.532;5.290;2023-02-19T11:11:36;11.60;90.90
24326;DHT22;12448;45.532;5.290;2023-02-19T11:14:15;11.60;90.80
24326;DHT22;12448;45.532;5.290;2023-02-19T11:16:48;11.60;90.90
24326;DHT22;12448;45.532;5.290;2023-02-19T11:19:36;11.60;90.90
24326;DHT22;12448;45.532;5.290;2023-02-19T11:24:51;11.40;91.10
24326;DHT22;12448;45.532;5.290;2023-02-19T11:27:21;11.30;91.10
24326;DHT22;12448;45.532;5.290;2023-02-19T11:29:47;11.30;91.20
24326;DHT22;12448;45.532;5.290;2023-02-19T11:32:23;11.20;91.40
24326;DHT22;12448;45.532;5.290;2023-02-19T11:34:49;11.80;91.80
24326;DHT22;12448;45.532;5.290;2023-02-19T11:37:19;11.70;91.90
24326;DHT22;12448;45.532;5.290;2023-02-19T11:39:51;11.20;91.60
24326;DHT22;12448;45.532;5.290;2023-02-19T11:45:16;11.20;91.70
24326;DHT22;12448;45.532;5.290;2023-02-19T11:50:45;11.30;91.80
24326;DHT22;12448;45.532;5.290;2023-02-19T12:01:24;11.20;91.90
24326;DHT22;12448;45.532;5.290;2023-02-19T12:23:10;11.20;92.00
24326;DHT22;12448;45.532;5.290;2023-02-19T12:26:00;11.20;92.20
24326;DHT22;12448;45.532;5.290;2023-02-19T12:43:07;11.40;91.60
24326;DHT22;12448;45.532;5.290;2023-02-19T12:46:07;11.40;91.60
24326;DHT22;12448;45.532;5.290;2023-02-19T12:51:16;11.50;91.60
24326;DHT22;12448;45.532;5.290;2023-02-19T12:53:54;11.40;91.50
24326;DHT22;12448;45.532;5.290;2023-02-19T12:58:59;11.40;91.70
24326;DHT22;12448;45.532;5.290;2023-02-19T13:01:32;11.40;91.80
24326;DHT22;12448;45.532;5.290;2023-02-19T13:09:49;11.30;92.00
24326;DHT22;12448;45.532;5.290;2023-02-19T13:12:28;11.20;92.30
24326;DHT22;12448;45.532;5.290;2023-02-19T13:17:53;11.20;92.40
24326;DHT22;12448;45.532;5.290;2023-02-19T13:31:46;11.30;92.80
24326;DHT22;12448;45.532;5.290;2023-02-19T13:34:28;11.30;92.80
24326;DHT22;12448;45.532;5.290;2023-02-19T13:36:57;11.30;92.90
24326;DHT22;12448;45.532;5.290;2023-02-19T13:39:23;11.20;92.90
24326;DHT22;12448;45.532;5.290;2023-02-19T13:41:54;11.30;93.00
24326;DHT22;12448;45.532;5.290;2023-02-19T13:44:28;11.20;93.00
24326;DHT22;12448;45.532;5.290;2023-02-19T13:46:55;11.20;93.10
24326;DHT22;12448;45.532;5.290;2023-02-19T13:49:40;11.30;93.10
24326;DHT22;12448;45.532;5.290;2023-02-19T14:00:46;11.10;92.90
24326;DHT22;12448;45.532;5.290;2023-02-19T14:03:38;11.00;93.10
24326;DHT22;12448;45.532;5.290;2023-02-19T14:06:08;11.00;93.30
24326;DHT22;12448;45.532;5.290;2023-02-19T14:08:51;11.10;93.30
24326;DHT22;12448;45.532;5.290;2023-02-19T14:12:00;11.10;93.30
24326;DHT22;12448;45.532;5.290;2023-02-19T14:16:55;11.10;93.30
24326;DHT22;12448;45.532;5.290;2023-02-19T14:19:48;11.10;93.50
24326;DHT22;12448;45.532;5.290;2023-02-19T14:28:35;10.90;93.50
24326;DHT22;12448;45.532;5.290;2023-02-19T14:31:12;10.90;93.60
24326;DHT22;12448;45.532;5.290;2023-02-19T14:33:45;10.90;93.50
24326;DHT22;12448;45.532;5.290;2023-02-19T14:36:43;10.90;93.40
24326;DHT22;12448;45.532;5.290;2023-02-19T14:41:41;11.10;93.40
24326;DHT22;12448;45.532;5.290;2023-02-19T14:44:16;11.10;93.30
24326;DHT22;12448;45.532;5.290;2023-02-19T14:46:49;11.10;93.20
24326;DHT22;12448;45.532;5.290;2023-02-19T14:51:43;11.10;93.20
24326;DHT22;12448;45.532;5.290;2023-02-19T14:54:15;11.00;93.30
24326;DHT22;12448;45.532;5.290;2023-02-19T14:56:44;11.00;93.30
24326;DHT22;12448;45.532;5.290;2023-02-19T15:01:36;11.10;92.90
24326;DHT22;12448;45.532;5.290;2023-02-19T15:04:03;11.10;92.80
24326;DHT22;12448;45.532;5.290;2023-02-19T15:06:29;11.10;92.80
24326;DHT22;12448;45.532;5.290;2023-02-19T15:09:03;11.10;92.90
24326;DHT22;12448;45.532;5.290;2023-02-19T15:11:30;11.00;92.80
24326;DHT22;12448;45.532;5.290;2023-02-19T15:14:04;11.10;92.80
24326;DHT22;12448;45.532;5.290;2023-02-19T15:16:33;11.10;92.70
24326;DHT22;12448;45.532;5.290;2023-02-19T15:19:00;11.10;92.70
24326;DHT22;12448;45.532;5.290;2023-02-19T15:21:34;11.10;93.00
24326;DHT22;12448;45.532;5.290;2023-02-19T15:24:04;11.40;93.10
24326;DHT22;12448;45.532;5.290;2023-02-19T15:26:39;11.10;92.90
24326;DHT22;12448;45.532;5.290;2023-02-19T15:29:10;11.10;92.90
24326;DHT22;12448;45.532;5.290;2023-02-19T15:31:44;11.10;92.80
24326;DHT22;12448;45.532;5.290;2023-02-19T15:34:15;11.10;92.60
24326;DHT22;12448;45.532;5.290;2023-02-19T15:36:41;11.20;92.30
24326;DHT22;12448;45.532;5.290;2023-02-19T15:39:23;11.20;92.30
24326;DHT22;12448;45.532;5.290;2023-02-19T15:41:59;11.20;92.20
24326;DHT22;12448;45.532;5.290;2023-02-19T15:46:57;11.20;92.10
24326;DHT22;12448;45.532;5.290;2023-02-19T15:49:43;11.20;92.20
24326;DHT22;12448;45.532;5.290;2023-02-19T15:52:24;11.20;92.10
24326;DHT22;12448;45.532;5.290;2023-02-19T15:55:02;11.10;92.00
24326;DHT22;12448;45.532;5.290;2023-02-19T15:57:32;11.20;92.00
24326;DHT22;12448;45.532;5.290;2023-02-19T16:00:08;11.10;92.40
24326;DHT22;12448;45.532;5.290;2023-02-19T16:02:35;11.10;92.10
24326;DHT22;12448;45.532;5.290;2023-02-19T16:05:00;11.10;92.00
24326;DHT22;12448;45.532;5.290;2023-02-19T16:07:35;11.10;92.00
24326;DHT22;12448;45.532;5.290;2023-02-19T16:10:05;11.10;92.00
24326;DHT22;12448;45.532;5.290;2023-02-19T16:12:31;11.00;91.90
24326;DHT22;12448;45.532;5.290;2023-02-19T16:14:57;11.00;91.70
24326;DHT22;12448;45.532;5.290;2023-02-19T16:17:23;10.90;91.50
24326;DHT22;12448;45.532;5.290;2023-02-19T16:19:57;11.00;91.40
24326;DHT22;12448;45.532;5.290;2023-02-19T16:22:26;11.00;91.40
24326;DHT22;12448;45.532;5.290;2023-02-19T16:24:55;11.00;91.40
24326;DHT22;12448;45.532;5.290;2023-02-19T16:27:32;11.00;91.40
24326;DHT22;12448;45.532;5.290;2023-02-19T16:30:03;11.00;91.10
24326;DHT22;12448;45.532;5.290;2023-02-19T16:32:30;10.90;90.90
24326;DHT22;12448;45.532;5.290;2023-02-19T16:34:56;10.90;91.00
24326;DHT22;12448;45.532;5.290;2023-02-19T16:37:35;10.80;90.70
24326;DHT22;12448;45.532;5.290;2023-02-19T16:45:19;10.90;91.20
24326;DHT22;12448;45.532;5.290;2023-02-19T16:47:46;10.80;91.30
24326;DHT22;12448;45.532;5.290;2023-02-19T16:50:23;10.90;91.40
24326;DHT22;12448;45.532;5.290;2023-02-19T16:52:54;11.10;91.40
24326;DHT22;12448;45.532;5.290;2023-02-19T16:55:21;10.80;91.50
24326;DHT22;12448;45.532;5.290;2023-02-19T16:57:47;10.70;91.50
24326;DHT22;12448;45.532;5.290;2023-02-19T17:00:17;10.70;91.40
24326;DHT22;12448;45.532;5.290;2023-02-19T17:02:46;10.60;90.90
24326;DHT22;12448;45.532;5.290;2023-02-19T17:05:12;10.60;90.90
24326;DHT22;12448;45.532;5.290;2023-02-19T17:07:38;10.60;90.70
24326;DHT22;12448;45.532;5.290;2023-02-19T17:10:04;10.70;90.80
24326;DHT22;12448;45.532;5.290;2023-02-19T17:12:29;10.40;90.70
24326;DHT22;12448;45.532;5.290;2023-02-19T17:14:55;10.40;90.80
24326;DHT22;12448;45.532;5.290;2023-02-19T17:17:20;10.40;90.90
24326;DHT22;12448;45.532;5.290;2023-02-19T17:19:46;10.30;90.90
24326;DHT22;12448;45.532;5.290;2023-02-19T17:22:12;10.30;91.00
24326;DHT22;12448;45.532;5.290;2023-02-19T17:24:41;10.30;91.10
24326;DHT22;12448;45.532;5.290;2023-02-19T17:27:11;10.40;91.10
24326;DHT22;12448;45.532;5.290;2023-02-19T17:29:38;10.40;91.10
24326;DHT22;12448;45.532;5.290;2023-02-19T17:32:04;10.40;91.00
24326;DHT22;12448;45.532;5.290;2023-02-19T17:34:29;10.40;91.00
24326;DHT22;12448;45.532;5.290;2023-02-19T17:36:55;10.30;91.10
24326;DHT22;12448;45.532;5.290;2023-02-19T17:39:21;10.30;91.00
24326;DHT22;12448;45.532;5.290;2023-02-19T17:41:48;10.50;91.10
24326;DHT22;12448;45.532;5.290;2023-02-19T17:44:14;10.40;91.00
24326;DHT22;12448;45.532;5.290;2023-02-19T17:46:40;10.40;91.00
24326;DHT22;12448;45.532;5.290;2023-02-19T17:49:06;10.40;91.00
24326;DHT22;12448;45.532;5.290;2023-02-19T17:51:33;10.40;91.00
24326;DHT22;12448;45.532;5.290;2023-02-19T17:53:59;10.30;90.90
24326;DHT22;12448;45.532;5.290;2023-02-19T17:56:25;10.30;91.00
24326;DHT22;12448;45.532;5.290;2023-02-19T17:58:52;10.20;91.10
24326;DHT22;12448;45.532;5.290;2023-02-19T18:01:17;10.20;91.10